Wetterdaten: Woche 25.04.16 - 01.05.16 (KW17)
Datum Zeit Temp. A. Feuchte A. Luftdruck Regen Wind Richtung Taupunkt Windchill Windben
25.04.2016 00:00 0,7 C 92 % 1014,3 hPa 0,0 l/m 1,0 km/h (0 Bft) O-NO -0,5 C 0,7 C 3,1 km/h (1 Bft)
25.04.2016 01:00 0,6 C 93 % 1014,4 hPa 0,0 l/m 0,5 km/h (0 Bft) O -0,4 C 0,6 C 2,0 km/h (1 Bft)
25.04.2016 02:00 0,3 C 92 % 1014,3 hPa 0,0 l/m 0,6 km/h (0 Bft) O -0,8 C 0,3 C 2,2 km/h (1 Bft)
25.04.2016 03:00 -0,4 C 92 % 1014,3 hPa 0,0 l/m 0,7 km/h (0 Bft) O -1,6 C -0,4 C 2,2 km/h (1 Bft)
25.04.2016 04:00 -0,3 C 91 % 1014,4 hPa 0,0 l/m 1,3 km/h (1 Bft) O -1,7 C -0,3 C 3,0 km/h (1 Bft)
25.04.2016 05:00 -0,4 C 90 % 1014,2 hPa 0,0 l/m 1,9 km/h (1 Bft) O-NO -1,9 C -0,4 C 4,3 km/h (1 Bft)
25.04.2016 06:00 -0,6 C 91 % 1014,5 hPa 0,0 l/m 2,6 km/h (1 Bft) O -1,9 C -0,6 C 6,7 km/h (2 Bft)
25.04.2016 07:00 -0,3 C 91 % 1015,0 hPa 0,0 l/m 2,4 km/h (1 Bft) O -1,6 C -0,3 C 7,0 km/h (2 Bft)
25.04.2016 08:00 -0,3 C 90 % 1015,3 hPa 0,0 l/m 2,9 km/h (1 Bft) O -1,7 C -0,3 C 8,1 km/h (2 Bft)
25.04.2016 09:00 0,1 C 91 % 1015,3 hPa 0,0 l/m 3,3 km/h (1 Bft) O -1,2 C 0,1 C 7,3 km/h (2 Bft)
25.04.2016 10:00 1,4 C 87 % 1015,2 hPa 1,5 l/m 4,7 km/h (1 Bft) NO -0,5 C 1,4 C 12,5 km/h (2 Bft)
25.04.2016 11:00 1,8 C 86 % 1015,0 hPa 1,3 l/m 6,2 km/h (2 Bft) O-NO -0,2 C 1,4 C 13,9 km/h (3 Bft)
25.04.2016 12:00 2,6 C 83 % 1014,7 hPa 0,0 l/m 6,6 km/h (2 Bft) O-NO 0,0 C 2,0 C 14,4 km/h (3 Bft)
25.04.2016 13:00 3,3 C 82 % 1014,1 hPa 0,0 l/m 7,0 km/h (2 Bft) NO 0,5 C 2,6 C 16,4 km/h (3 Bft)
25.04.2016 14:00 2,0 C 89 % 1013,9 hPa 0,8 l/m 5,9 km/h (2 Bft) O-NO 0,4 C 1,8 C 13,6 km/h (3 Bft)
25.04.2016 15:00 2,1 C 91 % 1013,5 hPa 0,3 l/m 6,2 km/h (2 Bft) O-NO 0,9 C 1,6 C 13,8 km/h (3 Bft)
25.04.2016 16:00 2,2 C 91 % 1012,7 hPa 0,3 l/m 6,8 km/h (2 Bft) O-NO 0,9 C 1,6 C 16,2 km/h (3 Bft)
25.04.2016 17:00 2,2 C 92 % 1011,9 hPa 0,5 l/m 7,2 km/h (2 Bft) NO 1,0 C 1,3 C 16,7 km/h (3 Bft)
25.04.2016 18:00 2,0 C 92 % 1011,4 hPa 0,8 l/m 7,4 km/h (2 Bft) NO 0,9 C 0,9 C 14,9 km/h (3 Bft)
25.04.2016 19:00 2,2 C 91 % 1010,9 hPa 0,3 l/m 8,8 km/h (2 Bft) O-NO 0,9 C 0,0 C 19,3 km/h (3 Bft)
25.04.2016 20:00 1,3 C 94 % 1010,3 hPa 1,5 l/m 6,6 km/h (2 Bft) NO 0,3 C 0,6 C 14,8 km/h (3 Bft)
25.04.2016 21:00 1,0 C 94 % 1010,0 hPa 1,3 l/m 7,1 km/h (2 Bft) O-NO 0,2 C 0,2 C 16,2 km/h (3 Bft)
25.04.2016 22:00 1,2 C 95 % 1009,4 hPa 1,5 l/m 8,0 km/h (2 Bft) O-NO 0,5 C -0,4 C 18,2 km/h (3 Bft)
25.04.2016 23:00 1,4 C 94 % 1008,5 hPa 1,0 l/m 7,0 km/h (2 Bft) O-NO 0,6 C 0,5 C 14,5 km/h (3 Bft)
26.04.2016 00:00 1,7 C 94 % 1008,0 hPa 0,8 l/m 6,6 km/h (2 Bft) O-NO 0,8 C 1,2 C 14,3 km/h (3 Bft)
26.04.2016 01:00 2,2 C 92 % 1007,0 hPa 0,3 l/m 6,5 km/h (2 Bft) O-NO 1,1 C 1,7 C 16,0 km/h (3 Bft)
26.04.2016 02:00 2,7 C 90 % 1005,8 hPa 0,5 l/m 8,2 km/h (2 Bft) O-NO 1,2 C 1,0 C 18,8 km/h (3 Bft)
26.04.2016 03:00 2,6 C 91 % 1005,2 hPa 0,8 l/m 8,5 km/h (2 Bft) N-NO 1,3 C 0,6 C 18,4 km/h (3 Bft)
26.04.2016 04:00 2,6 C 92 % 1004,4 hPa 1,0 l/m 9,2 km/h (2 Bft) O 1,4 C 0,1 C 22,0 km/h (4 Bft)
26.04.2016 05:00 2,9 C 92 % 1003,8 hPa 0,5 l/m 9,0 km/h (2 Bft) O-NO 1,7 C 0,5 C 21,8 km/h (4 Bft)
26.04.2016 06:00 3,1 C 91 % 1003,6 hPa 0,3 l/m 8,3 km/h (2 Bft) NO 1,8 C 1,3 C 18,5 km/h (3 Bft)
26.04.2016 07:00 3,3 C 90 % 1003,6 hPa 0,0 l/m 8,3 km/h (2 Bft) NO 1,8 C 1,5 C 20,1 km/h (4 Bft)
26.04.2016 08:00 3,0 C 92 % 1003,9 hPa 1,5 l/m 6,8 km/h (2 Bft) O-NO 1,9 C 2,2 C 16,1 km/h (3 Bft)
26.04.2016 09:00 2,0 C 93 % 1004,4 hPa 0,3 l/m 3,2 km/h (1 Bft) O 0,9 C 2,0 C 8,6 km/h (2 Bft)
26.04.2016 10:00 0,7 C 95 % 1004,9 hPa 0,0 l/m 1,9 km/h (1 Bft) O-NO -0,1 C 0,7 C 5,7 km/h (2 Bft)
26.04.2016 11:00 0,7 C 95 % 1005,2 hPa 1,5 l/m 3,0 km/h (1 Bft) NO -0,0 C 0,7 C 6,3 km/h (2 Bft)
26.04.2016 12:00 0,8 C 95 % 1005,3 hPa 1,3 l/m 3,4 km/h (1 Bft) NO 0,1 C 0,8 C 6,4 km/h (2 Bft)
26.04.2016 13:00 1,4 C 95 % 1005,6 hPa 2,5 l/m 2,7 km/h (1 Bft) O 0,6 C 1,4 C 6,4 km/h (2 Bft)
26.04.2016 14:00 1,6 C 93 % 1006,0 hPa 1,8 l/m 3,3 km/h (1 Bft) O 0,5 C 1,6 C 7,6 km/h (2 Bft)
26.04.2016 15:00 2,0 C 92 % 1005,9 hPa 0,8 l/m 4,2 km/h (1 Bft) NO 0,8 C 2,0 C 8,7 km/h (2 Bft)
26.04.2016 16:00 1,8 C 93 % 1005,6 hPa 0,0 l/m 4,1 km/h (1 Bft) NO 0,9 C 1,8 C 8,4 km/h (2 Bft)
26.04.2016 17:00 1,8 C 93 % 1005,5 hPa 0,3 l/m 3,0 km/h (1 Bft) O-NO 0,8 C 1,8 C 7,0 km/h (2 Bft)
26.04.2016 18:00 1,3 C 94 % 1005,6 hPa 0,5 l/m 1,3 km/h (1 Bft) O 0,4 C 1,3 C 3,8 km/h (1 Bft)
26.04.2016 19:00 0,4 C 95 % 1005,7 hPa 0,0 l/m 0,4 km/h (0 Bft) O-NO -0,4 C 0,4 C 2,0 km/h (1 Bft)
26.04.2016 20:00 0,2 C 96 % 1005,9 hPa 0,0 l/m 0,9 km/h (0 Bft) O -0,3 C 0,2 C 3,0 km/h (1 Bft)
26.04.2016 21:00 0,2 C 96 % 1006,1 hPa 0,0 l/m 1,1 km/h (0 Bft) O-NO -0,4 C 0,2 C 2,4 km/h (1 Bft)
26.04.2016 22:00 0,2 C 95 % 1006,4 hPa 0,0 l/m 2,0 km/h (1 Bft) O-NO -0,5 C 0,2 C 4,9 km/h (1 Bft)
26.04.2016 23:00 0,2 C 95 % 1006,7 hPa 0,0 l/m 2,3 km/h (1 Bft) O-NO -0,5 C 0,2 C 5,4 km/h (2 Bft)
27.04.2016 00:00 0,1 C 95 % 1006,9 hPa 0,0 l/m 2,6 km/h (1 Bft) O -0,6 C 0,1 C 6,5 km/h (2 Bft)
27.04.2016 01:00 0,1 C 93 % 1007,3 hPa 0,0 l/m 3,2 km/h (1 Bft) O-NO -0,9 C 0,1 C 9,4 km/h (2 Bft)
27.04.2016 02:00 -0,2 C 93 % 1007,9 hPa 0,0 l/m 2,9 km/h (1 Bft) O-NO -1,2 C -0,2 C 7,4 km/h (2 Bft)
27.04.2016 03:00 -0,2 C 92 % 1008,4 hPa 0,0 l/m 1,9 km/h (1 Bft) O -1,3 C -0,2 C 4,6 km/h (1 Bft)
27.04.2016 04:00 -0,4 C 92 % 1009,2 hPa 0,0 l/m 2,2 km/h (1 Bft) O -1,6 C -0,4 C 6,7 km/h (2 Bft)
27.04.2016 05:00 -0,7 C 92 % 1009,9 hPa 0,0 l/m 1,8 km/h (1 Bft) O -1,9 C -0,7 C 5,6 km/h (2 Bft)
27.04.2016 06:00 -0,7 C 91 % 1010,2 hPa 0,0 l/m 1,6 km/h (1 Bft) O -1,9 C -0,7 C 4,8 km/h (1 Bft)
27.04.2016 07:00 -0,3 C 90 % 1010,7 hPa 0,0 l/m 2,6 km/h (1 Bft) O-NO -1,6 C -0,3 C 8,2 km/h (2 Bft)
27.04.2016 08:00 0,3 C 90 % 1010,9 hPa 1,3 l/m 5,9 km/h (2 Bft) O-NO -1,2 C -0,1 C 13,5 km/h (3 Bft)
27.04.2016 09:00 0,5 C 89 % 1011,0 hPa 0,8 l/m 6,8 km/h (2 Bft) O-NO -1,0 C -0,3 C 15,3 km/h (3 Bft)
27.04.2016 10:00 1,3 C 87 % 1011,4 hPa 1,5 l/m 6,9 km/h (2 Bft) O-NO -0,6 C 0,5 C 17,0 km/h (3 Bft)
27.04.2016 11:00 2,2 C 84 % 1011,6 hPa 1,0 l/m 6,1 km/h (2 Bft) O-NO -0,2 C 1,8 C 14,8 km/h (3 Bft)
27.04.2016 12:00 2,1 C 85 % 1012,1 hPa 0,3 l/m 5,8 km/h (2 Bft) O -0,1 C 1,7 C 13,6 km/h (3 Bft)
27.04.2016 13:00 1,6 C 91 % 1012,7 hPa 1,8 l/m 4,0 km/h (1 Bft) O-NO 0,3 C 1,6 C 11,3 km/h (2 Bft)
27.04.2016 14:00 4,1 C 84 % 1012,9 hPa 0,3 l/m 7,0 km/h (2 Bft) O-NO 1,6 C 3,3 C 15,1 km/h (3 Bft)
27.04.2016 15:00 5,1 C 76 % 1012,8 hPa 0,0 l/m 6,3 km/h (2 Bft) O-NO 1,1 C 4,7 C 14,2 km/h (3 Bft)
27.04.2016 16:00 5,9 C 68 % 1013,0 hPa 0,0 l/m 6,1 km/h (2 Bft) O-NO 0,5 C 5,6 C 14,5 km/h (3 Bft)
27.04.2016 17:00 5,6 C 68 % 1013,2 hPa 0,0 l/m 4,5 km/h (1 Bft) O 0,3 C 5,6 C 11,3 km/h (2 Bft)
27.04.2016 18:00 5,0 C 70 % 1013,5 hPa 0,0 l/m 4,4 km/h (1 Bft) O-NO -0,0 C 4,9 C 8,9 km/h (2 Bft)
27.04.2016 19:00 3,9 C 78 % 1013,7 hPa 0,0 l/m 3,3 km/h (1 Bft) NO 0,4 C 3,9 C 7,5 km/h (2 Bft)
27.04.2016 20:00 2,1 C 87 % 1014,4 hPa 0,3 l/m 3,0 km/h (1 Bft) O-NO 0,1 C 2,1 C 7,1 km/h (2 Bft)
27.04.2016 21:00 0,9 C 93 % 1014,9 hPa 0,8 l/m 1,0 km/h (0 Bft) NO -0,1 C 0,9 C 3,1 km/h (1 Bft)
27.04.2016 22:00 0,5 C 95 % 1015,3 hPa 0,3 l/m 1,1 km/h (1 Bft) O -0,2 C 0,5 C 2,8 km/h (1 Bft)
27.04.2016 23:00 0,1 C 95 % 1015,0 hPa 0,0 l/m 0,1 km/h (0 Bft) O -0,6 C 0,1 C 0,4 km/h (0 Bft)
28.04.2016 00:00 -0,3 C 96 % 1015,0 hPa 0,0 l/m 0,0 km/h (0 Bft) O-SO -0,9 C -0,3 C 0,3 km/h (0 Bft)
28.04.2016 01:00 -0,8 C 96 % 1014,8 hPa 0,0 l/m 0,2 km/h (0 Bft) S-SO -1,4 C -0,8 C 0,7 km/h (0 Bft)
28.04.2016 02:00 -1,1 C 96 % 1014,7 hPa 0,0 l/m 0,1 km/h (0 Bft) S-SO -1,7 C -1,1 C 0,6 km/h (0 Bft)
28.04.2016 03:00 -1,3 C 96 % 1014,6 hPa 0,0 l/m 0,2 km/h (0 Bft) S-SO -2,0 C -1,3 C 0,8 km/h (0 Bft)
28.04.2016 04:00 -1,9 C 95 % 1014,8 hPa 0,0 l/m 0,1 km/h (0 Bft) S-SO -2,5 C -1,9 C 0,7 km/h (0 Bft)
28.04.2016 05:00 -1,9 C 96 % 1014,8 hPa 0,0 l/m 0,2 km/h (0 Bft) O -2,4 C -1,9 C 0,8 km/h (0 Bft)
28.04.2016 06:00 -1,8 C 96 % 1015,1 hPa 0,0 l/m 0,2 km/h (0 Bft) O -2,4 C -1,8 C 0,8 km/h (0 Bft)
28.04.2016 07:00 -1,3 C 97 % 1015,6 hPa 0,0 l/m 0,3 km/h (0 Bft) S-SW -1,8 C -1,3 C 0,8 km/h (0 Bft)
28.04.2016 08:00 0,8 C 95 % 1016,0 hPa 1,5 l/m 2,0 km/h (1 Bft) NO 0,2 C 0,8 C 4,0 km/h (1 Bft)
28.04.2016 09:00 1,5 C 94 % 1016,2 hPa 1,3 l/m 4,1 km/h (1 Bft) NO 0,6 C 1,5 C 8,5 km/h (2 Bft)
28.04.2016 10:00 3,2 C 90 % 1016,6 hPa 0,3 l/m 5,1 km/h (1 Bft) O-NO 1,7 C 3,1 C 11,6 km/h (2 Bft)
28.04.2016 11:00 2,5 C 92 % 1017,0 hPa 1,0 l/m 4,4 km/h (1 Bft) NO 1,3 C 2,5 C 10,0 km/h (2 Bft)
28.04.2016 12:00 3,2 C 93 % 1017,1 hPa 0,0 l/m 4,0 km/h (1 Bft) NO 2,1 C 3,2 C 9,4 km/h (2 Bft)
28.04.2016 13:00 5,7 C 82 % 1016,8 hPa 0,0 l/m 4,7 km/h (1 Bft) O-NO 2,8 C 5,5 C 12,1 km/h (2 Bft)
28.04.2016 14:00 6,4 C 73 % 1017,0 hPa 0,0 l/m 4,9 km/h (1 Bft) NO 1,8 C 6,3 C 11,3 km/h (2 Bft)
28.04.2016 15:00 5,8 C 78 % 1017,4 hPa 0,0 l/m 6,2 km/h (2 Bft) NO 2,3 C 5,3 C 12,5 km/h (2 Bft)
28.04.2016 16:00 7,8 C 68 % 1017,0 hPa 0,0 l/m 4,1 km/h (1 Bft) O 2,1 C 7,8 C 10,1 km/h (2 Bft)
28.04.2016 17:00 7,0 C 68 % 1017,2 hPa 0,0 l/m 3,9 km/h (1 Bft) O-NO 1,4 C 7,0 C 8,8 km/h (2 Bft)
28.04.2016 18:00 7,1 C 66 % 1017,3 hPa 0,0 l/m 2,7 km/h (1 Bft) O 1,2 C 7,1 C 5,2 km/h (1 Bft)
28.04.2016 19:00 6,0 C 71 % 1017,4 hPa 0,0 l/m 0,9 km/h (0 Bft) O-SO 1,2 C 6,0 C 2,1 km/h (1 Bft)
28.04.2016 20:00 3,7 C 84 % 1017,8 hPa 0,0 l/m 0,1 km/h (0 Bft) N 1,2 C 3,7 C 0,9 km/h (0 Bft)
28.04.2016 21:00 1,7 C 89 % 1018,2 hPa 0,0 l/m 0,0 km/h (0 Bft) O-SO 0,1 C 1,7 C 0,6 km/h (0 Bft)
28.04.2016 22:00 -0,2 C 92 % 1018,5 hPa 0,0 l/m 0,1 km/h (0 Bft) O-SO -1,4 C -0,2 C 0,7 km/h (0 Bft)
28.04.2016 23:00 -1,1 C 94 % 1018,7 hPa 0,0 l/m 0,0 km/h (0 Bft) O-SO -2,0 C -1,1 C 0,3 km/h (0 Bft)
29.04.2016 00:00 -1,7 C 94 % 1018,8 hPa 0,0 l/m 0,0 km/h (0 Bft) O-SO -2,4 C -1,7 C 0,1 km/h (0 Bft)
29.04.2016 01:00 -1,9 C 94 % 1018,8 hPa 0,0 l/m 0,0 km/h (0 Bft) O-SO -2,7 C -1,9 C 0,0 km/h (0 Bft)
29.04.2016 02:00 -2,5 C 95 % 1018,7 hPa 0,0 l/m 0,0 km/h (0 Bft) O-SO -3,2 C -2,5 C 0,0 km/h (0 Bft)
29.04.2016 03:00 -2,8 C 95 % 1018,8 hPa 0,0 l/m 0,0 km/h (0 Bft) O-SO -3,5 C -2,8 C 0,1 km/h (0 Bft)
29.04.2016 04:00 -3,2 C 95 % 1018,8 hPa 0,0 l/m 0,0 km/h (0 Bft) O-SO -3,9 C -3,2 C 0,0 km/h (0 Bft)
29.04.2016 05:00 -3,2 C 96 % 1018,9 hPa 0,0 l/m 0,0 km/h (0 Bft) O-SO -3,8 C -3,2 C 0,0 km/h (0 Bft)
29.04.2016 06:00 -3,3 C 96 % 1019,0 hPa 0,0 l/m 0,0 km/h (0 Bft) O-SO -3,8 C -3,3 C 0,0 km/h (0 Bft)
29.04.2016 07:00 -2,2 C 97 % 1019,4 hPa 0,0 l/m 0,0 km/h (0 Bft) O-SO -2,7 C -2,2 C 0,3 km/h (0 Bft)
29.04.2016 08:00 2,8 C 89 % 1019,5 hPa 0,0 l/m 0,8 km/h (0 Bft) O-SO 1,1 C 2,8 C 2,4 km/h (1 Bft)
29.04.2016 09:00 6,1 C 77 % 1019,5 hPa 0,0 l/m 1,8 km/h (1 Bft) O-SO 2,4 C 6,1 C 3,7 km/h (1 Bft)
29.04.2016 10:00 8,3 C 60 % 1019,5 hPa 0,0 l/m 4,9 km/h (1 Bft) O 1,1 C 8,3 C 10,3 km/h (2 Bft)
29.04.2016 11:00 9,4 C 55 % 1019,3 hPa 0,0 l/m 5,2 km/h (1 Bft) O-NO 0,7 C 9,3 C 11,4 km/h (2 Bft)
29.04.2016 12:00 10,3 C 50 % 1019,0 hPa 0,0 l/m 6,0 km/h (2 Bft) O 0,4 C 10,0 C 13,1 km/h (3 Bft)
29.04.2016 13:00 11,1 C 47 % 1018,5 hPa 0,0 l/m 5,1 km/h (1 Bft) O-NO 0,2 C 10,9 C 13,3 km/h (3 Bft)
29.04.2016 14:00 12,3 C 44 % 1018,2 hPa 0,0 l/m 4,4 km/h (1 Bft) O-NO 0,5 C 12,2 C 10,2 km/h (2 Bft)
29.04.2016 15:00 13,0 C 43 % 1018,0 hPa 0,0 l/m 4,7 km/h (1 Bft) O-NO 0,7 C 12,9 C 11,5 km/h (2 Bft)
29.04.2016 16:00 13,9 C 41 % 1017,6 hPa 0,0 l/m 4,5 km/h (1 Bft) O-NO 0,7 C 13,9 C 10,6 km/h (2 Bft)
29.04.2016 17:00 13,9 C 40 % 1017,2 hPa 0,0 l/m 4,4 km/h (1 Bft) NO 0,6 C 13,9 C 10,5 km/h (2 Bft)
29.04.2016 18:00 13,5 C 41 % 1017,1 hPa 0,0 l/m 4,0 km/h (1 Bft) O-NO 0,4 C 13,4 C 8,2 km/h (2 Bft)
29.04.2016 19:00 11,8 C 46 % 1017,1 hPa 0,0 l/m 2,1 km/h (1 Bft) O 0,4 C 11,8 C 6,4 km/h (2 Bft)
29.04.2016 20:00 8,9 C 63 % 1017,2 hPa 0,0 l/m 0,4 km/h (0 Bft) S 2,1 C 8,9 C 1,8 km/h (1 Bft)
29.04.2016 21:00 6,5 C 73 % 1017,5 hPa 0,0 l/m 0,0 km/h (0 Bft) S 2,0 C 6,5 C 0,4 km/h (0 Bft)
29.04.2016 22:00 3,9 C 82 % 1017,7 hPa 0,0 l/m 0,0 km/h (0 Bft) S 1,1 C 3,9 C 0,5 km/h (0 Bft)
29.04.2016 23:00 2,4 C 86 % 1017,6 hPa 0,0 l/m 0,0 km/h (0 Bft) S 0,3 C 2,4 C 0,2 km/h (0 Bft)
30.04.2016 00:00 1,5 C 89 % 1017,7 hPa 0,0 l/m 0,0 km/h (0 Bft) S -0,2 C 1,5 C 0,2 km/h (0 Bft)
30.04.2016 01:00 0,5 C 91 % 1017,7 hPa 0,0 l/m 0,0 km/h (0 Bft) S -0,8 C 0,5 C 0,4 km/h (0 Bft)
30.04.2016 02:00 -0,4 C 92 % 1017,3 hPa 0,0 l/m 0,0 km/h (0 Bft) S -1,5 C -0,4 C 0,2 km/h (0 Bft)
30.04.2016 03:00 -0,7 C 93 % 1017,1 hPa 0,0 l/m 0,0 km/h (0 Bft) S -1,6 C -0,7 C 0,2 km/h (0 Bft)
30.04.2016 04:00 -0,8 C 94 % 1017,1 hPa 0,0 l/m 0,0 km/h (0 Bft) S -1,7 C -0,8 C 0,1 km/h (0 Bft)
30.04.2016 05:00 -1,1 C 94 % 1017,1 hPa 0,0 l/m 0,0 km/h (0 Bft) S -1,9 C -1,1 C 0,0 km/h (0 Bft)
30.04.2016 06:00 -1,2 C 94 % 1017,0 hPa 0,0 l/m 0,0 km/h (0 Bft) S -2,1 C -1,2 C 0,2 km/h (0 Bft)
30.04.2016 07:00 0,1 C 95 % 1017,3 hPa 0,0 l/m 0,2 km/h (0 Bft) S -0,7 C 0,1 C 1,2 km/h (1 Bft)
30.04.2016 08:00 3,9 C 88 % 1017,2 hPa 0,0 l/m 0,8 km/h (0 Bft) W-SW 2,0 C 3,9 C 2,3 km/h (1 Bft)
30.04.2016 09:00 7,6 C 78 % 1016,9 hPa 0,0 l/m 1,8 km/h (1 Bft) W-SW 4,0 C 7,6 C 3,2 km/h (1 Bft)
30.04.2016 10:00 11,7 C 54 % 1016,4 hPa 0,0 l/m 2,6 km/h (1 Bft) W 2,6 C 11,7 C 6,3 km/h (2 Bft)
30.04.2016 11:00 13,8 C 43 % 1015,7 hPa 0,0 l/m 2,9 km/h (1 Bft) N-NO 1,5 C 13,8 C 6,4 km/h (2 Bft)
30.04.2016 12:00 14,3 C 42 % 1015,2 hPa 0,0 l/m 2,8 km/h (1 Bft) W-NW 1,6 C 14,3 C 6,0 km/h (2 Bft)
30.04.2016 13:00 15,1 C 42 % 1014,7 hPa 0,0 l/m 3,3 km/h (1 Bft) W-NW 2,2 C 15,1 C 7,8 km/h (2 Bft)
30.04.2016 14:00 15,6 C 42 % 1014,1 hPa 0,0 l/m 3,3 km/h (1 Bft) O 2,8 C 15,6 C 7,6 km/h (2 Bft)
30.04.2016 15:00 15,7 C 41 % 1013,6 hPa 0,0 l/m 3,3 km/h (1 Bft) W-NW 2,6 C 15,7 C 7,3 km/h (2 Bft)
30.04.2016 16:00 15,9 C 41 % 1012,7 hPa 0,0 l/m 2,9 km/h (1 Bft) W-NW 2,8 C 15,9 C 7,5 km/h (2 Bft)
30.04.2016 17:00 14,5 C 46 % 1012,4 hPa 0,0 l/m 3,1 km/h (1 Bft) NW 3,2 C 14,5 C 7,5 km/h (2 Bft)
30.04.2016 18:00 13,7 C 49 % 1012,4 hPa 0,0 l/m 3,7 km/h (1 Bft) NW 3,3 C 13,7 C 8,7 km/h (2 Bft)
30.04.2016 19:00 8,2 C 81 % 1013,3 hPa 2,3 l/m 4,6 km/h (1 Bft) O 5,0 C 8,0 C 11,9 km/h (2 Bft)
30.04.2016 20:00 6,6 C 91 % 1013,9 hPa 0,8 l/m 2,6 km/h (1 Bft) O 5,2 C 6,6 C 6,4 km/h (2 Bft)
30.04.2016 21:00 6,2 C 92 % 1014,5 hPa 1,8 l/m 2,1 km/h (1 Bft) O 5,0 C 6,2 C 5,3 km/h (1 Bft)
30.04.2016 22:00 5,9 C 94 % 1015,0 hPa 6,9 l/m 0,8 km/h (0 Bft) O 5,0 C 5,9 C 2,7 km/h (1 Bft)
30.04.2016 23:00 5,6 C 95 % 1014,8 hPa 10,2 l/m 1,0 km/h (0 Bft) O 4,8 C 5,6 C 2,8 km/h (1 Bft)
01.05.2016 00:00 5,3 C 95 % 1014,5 hPa 5,1 l/m 0,9 km/h (0 Bft) O 4,7 C 5,3 C 2,0 km/h (1 Bft)
01.05.2016 01:00 5,1 C 95 % 1014,3 hPa 0,3 l/m 1,6 km/h (1 Bft) O 4,4 C 5,1 C 3,9 km/h (1 Bft)
01.05.2016 02:00 4,8 C 96 % 1013,8 hPa 0,0 l/m 1,2 km/h (1 Bft) O 4,2 C 4,8 C 3,0 km/h (1 Bft)
01.05.2016 03:00 4,8 C 96 % 1013,8 hPa 0,0 l/m 1,3 km/h (1 Bft) O-NO 4,2 C 4,8 C 3,2 km/h (1 Bft)
01.05.2016 04:00 5,0 C 96 % 1014,0 hPa 0,3 l/m 1,2 km/h (1 Bft) O 4,5 C 5,0 C 3,9 km/h (1 Bft)
01.05.2016 05:00 5,0 C 96 % 1014,1 hPa 0,8 l/m 0,7 km/h (0 Bft) NO 4,4 C 5,0 C 2,9 km/h (1 Bft)
01.05.2016 06:00 4,8 C 96 % 1014,3 hPa 0,3 l/m 0,8 km/h (0 Bft) NO 4,2 C 4,8 C 2,6 km/h (1 Bft)
01.05.2016 07:00 4,7 C 96 % 1014,9 hPa 0,3 l/m 0,9 km/h (0 Bft) NO 4,2 C 4,7 C 3,1 km/h (1 Bft)
01.05.2016 08:00 5,1 C 96 % 1015,7 hPa 0,0 l/m 1,9 km/h (1 Bft) NW 4,5 C 5,1 C 5,2 km/h (1 Bft)
01.05.2016 09:00 5,4 C 95 % 1016,0 hPa 0,0 l/m 2,0 km/h (1 Bft) N 4,6 C 5,4 C 4,6 km/h (1 Bft)
01.05.2016 10:00 5,8 C 93 % 1016,5 hPa 0,0 l/m 1,8 km/h (1 Bft) NW 4,8 C 5,8 C 4,8 km/h (1 Bft)
01.05.2016 11:00 6,6 C 90 % 1017,2 hPa 0,0 l/m 2,2 km/h (1 Bft) NW 5,1 C 6,6 C 5,9 km/h (2 Bft)
01.05.2016 12:00 6,8 C 89 % 1017,7 hPa 0,0 l/m 2,3 km/h (1 Bft) W 5,2 C 6,8 C 6,1 km/h (2 Bft)
01.05.2016 13:00 7,6 C 88 % 1018,2 hPa 0,0 l/m 2,2 km/h (1 Bft) O-SO 5,8 C 7,6 C 6,1 km/h (2 Bft)
01.05.2016 14:00 9,7 C 83 % 1018,6 hPa 0,0 l/m 2,8 km/h (1 Bft) O-NO 7,0 C 9,7 C 6,7 km/h (2 Bft)
01.05.2016 15:00 10,9 C 79 % 1018,6 hPa 0,0 l/m 2,7 km/h (1 Bft) O 7,5 C 10,9 C 7,1 km/h (2 Bft)
01.05.2016 16:00 10,7 C 81 % 1018,5 hPa 0,0 l/m 3,7 km/h (1 Bft) O-NO 7,5 C 10,7 C 9,1 km/h (2 Bft)
01.05.2016 17:00 10,5 C 85 % 1018,8 hPa 1,5 l/m 2,9 km/h (1 Bft) O-NO 8,0 C 10,5 C 7,0 km/h (2 Bft)
01.05.2016 18:00 9,9 C 91 % 1019,3 hPa 0,0 l/m 2,2 km/h (1 Bft) O 8,5 C 9,9 C 4,7 km/h (1 Bft)
01.05.2016 19:00 9,8 C 91 % 1020,0 hPa 0,0 l/m 1,2 km/h (1 Bft) O 8,4 C 9,8 C 3,3 km/h (1 Bft)
01.05.2016 20:00 9,1 C 94 % 1020,9 hPa 0,5 l/m 0,6 km/h (0 Bft) O-NO 8,2 C 9,1 C 2,1 km/h (1 Bft)
01.05.2016 21:00 8,7 C 95 % 1021,4 hPa 0,0 l/m 0,7 km/h (0 Bft) S 7,9 C 8,7 C 2,3 km/h (1 Bft)
01.05.2016 22:00 8,2 C 96 % 1022,3 hPa 0,0 l/m 0,8 km/h (0 Bft) W-NW 7,6 C 8,2 C 2,7 km/h (1 Bft)
01.05.2016 23:00 7,9 C 96 % 1022,6 hPa 0,8 l/m 1,6 km/h (1 Bft) O-NO 7,2 C 7,9 C 3,9 km/h (1 Bft)
Min-Datum _ 29.04.16 30.04.16 26.04.16 - 01.05.16 - 29.04.16 29.04.16 01.05.16
_ Min-Zeit 06:35 11:30 07:00 - 23:00 - 06:35 06:35 23:00
Minimum _ -3,4 C 38 % 1003,5 hPa - 0,0 km/h (0 Bft) - -4,1 C -3,4 C 0,0 km/h (0 Bft)
Max-Datum _ 30.04.16 01.05.16 01.05.16 30.04.16 26.04.16 - 01.05.16 30.04.16 27.04.16
_ Max-Zeit 16:20 04:30 23:15 23:10 08:56 - 18:55 16:20 12:15
Maximum _ 16,4 C 97 % 1022,8 hPa 10,2 l/m 14,5 km/h
O-NO (3 Bft)
- 8,9 C 16,4 C 30,6 km/h
O-NO (5 Bft)
Durchschnitt _ 3,7 C 85 % 1014,0 hPa #69,1 l/m 2,9 km/h (1 Bft) O 1,0 C 3,5 C 7,0 km/h (2 Bft)